Forage Plot, Arizona (BMGR) Weather observations

Data are for 10 minute period ending at time listed.
 Day   Time   Solar   Ave.   Ave.  Ave.  Vector  Max.   Total    
  of    of     Rad.   Air    Rel.  Wind   Wind   Wind  Precip.   
Year   Day            Temp.  Hum.  Speed  Dir.   Gust            
2026   (MST)  Kw/m2    F      %     mph   deg.    mph    in.     
-----------------------------------------------------------------
 127    3:35   0.00   60.2    30    0.0     0     0.0    0.00 
 127    3:40   0.00   60.4    30    0.0     0     0.0    0.00 
 127    3:45   0.00   59.8    31    0.0     0     0.0    0.00 
 127    3:50   0.00   59.8    32    0.0     0     0.0    0.00 
 127    3:55   0.00   60.2    31    0.0     0     0.0    0.00 
 127    4:00   0.00   58.6    29    0.0     0     0.0    0.00 
 127    4:05   0.00   57.6    30    0.0     0     0.0    0.00 
 127    4:10   0.00   58.0    30    0.0     0     0.0    0.00 
 127    4:15   0.00   57.8    30    0.0     0     0.0    0.00 
 127    4:20   0.00   57.2    30    2.0   149     3.2    0.00 
 127    4:25   0.00   57.2    30    1.1   159     2.6    0.00 
 127    4:30   0.00   57.6    31    0.0     0     0.0    0.00 
 127    4:35   0.00   58.5    31    0.0     0     0.0    0.00 
 127    4:40   0.00   58.7    31    0.0     0     0.0    0.00 
 127    4:45   0.00   57.8    31    0.0     0     0.0    0.00 
 127    4:50   0.00   57.4    32    0.0     0     0.0    0.00 
 127    4:55   0.00   58.0    32    1.6   150     3.8    0.00 
 127    5:00   0.00   58.3    32    2.8   132     3.8    0.00 
 127    5:05   0.00   58.1    32    2.6   144     3.8    0.00 
 127    5:10   0.00   58.0    32    2.9   128     3.8    0.00 
 127    5:15   0.00   58.0    32    3.0   124     3.8    0.00 
 127    5:20   0.00   58.1    33    1.9   125     3.8    0.00 
 127    5:25   0.00   58.4    33    3.2   136     3.8    0.00 
 127    5:30   0.00   59.1    33    3.4   150     4.9    0.00 
 127    5:35   0.00   59.5    32    3.5   146     4.9    0.00 
 127    5:40   0.00   59.5    32    2.9   151     3.8    0.00 
 127    5:45   0.01   59.2    32    3.5   147     4.9    0.00 
 127    5:50   0.01   59.5    32    3.3   161     4.9    0.00 
 127    5:55   0.01   59.5    32    3.5   152     4.9    0.00 
 127    6:00   0.01   59.2    32    3.5   145     4.9    0.00 
 127    6:05   0.02   59.4    32    3.2   142     4.3    0.00 
 127    6:10   0.04   59.6    32    2.9   146     4.9    0.00 
 127    6:15   0.06   60.4    32    2.3   165     3.2    0.00 
 127    6:20   0.07   61.0    32    3.2   144     4.3    0.00 
 127    6:25   0.08   62.1    31    3.7   152     5.4    0.00 
 127    6:30   0.09   62.8    30    4.0   154     6.0    0.00 
 127    6:35   0.11   63.5    30    3.0   146     4.9    0.00 
 127    6:40   0.12   64.4    30    2.4   153     3.8    0.00 
 127    6:45   0.14   65.0    29    2.4   176     3.8    0.00 
 127    6:50   0.15   65.5    29    2.5   158     4.3    0.00 
 127    6:55   0.16   65.9    28    3.1   159     4.3    0.00 
 127    7:00   0.18   66.7    28    2.2   174     3.2    0.00 
 127    7:05   0.19   67.1    27    2.5   169     3.8    0.00 
 127    7:10   0.21   67.5    27    2.7   170     3.8    0.00 
 127    7:15   0.23   68.2    27    3.2   168     4.9    0.00 
 127    7:20   0.24   68.9    26    3.8   164     5.4    0.00 
 127    7:25   0.26   69.4    26    3.2   165     4.9    0.00 
 127    7:30   0.27   69.9    25    2.4   168     3.8    0.00 
 127    7:35   0.29   70.6    25    2.6   173     4.3    0.00 
 127    7:40   0.31   71.0    25    2.7   181     3.8    0.00 
 127    7:45   0.32   71.7    24    2.7   174     3.8    0.00 
 127    7:50   0.34   72.2    24    2.5   164     3.2    0.00 
 127    7:55   0.36   73.1    24    1.6   171     2.6    0.00 
 127    8:00   0.37   74.1    24    0.7   152     2.6    0.00 
 127    8:05   0.39   75.5    23    0.6   209     2.1    0.00 
 127    8:10   0.41   76.7    23    0.0     0     0.0    0.00 
 127    8:15   0.42   77.8    22    0.1   219     2.1    0.00 
 127    8:20   0.44   78.9    22    0.0   220     1.0    0.00 
 127    8:25   0.46   79.4    22    0.7   300     3.8    0.00 
 127    8:30   0.47   78.6    22    0.3   300     2.1    0.00 
 127    8:35   0.49   79.6    22    0.2   305     1.5    0.00 
 127    8:40   0.50   79.7    22    0.3   311     2.6    0.00 
 127    8:45   0.52   80.4    22    1.7   319     6.0    0.00 
 127    8:50   0.53   80.3    22    0.5    21     2.6    0.00 
 127    8:55   0.55   80.8    21    2.2   325     4.3    0.00 
 127    9:00   0.56   81.1    21    2.3     6     5.4    0.00 
 127    9:05   0.58   80.8    21    3.1   321     4.9    0.00 
 127    9:10   0.59   81.0    21    3.9   357     6.5    0.00 
 127    9:15   0.60   81.2    21    4.5   318     7.1    0.00 
 127    9:20   0.62   81.9    21    4.6   327     7.1    0.00 
 127    9:25   0.63   82.0    21    5.5   327     8.8    0.00 
 127    9:30   0.64   82.3    20    5.7   322    11.0    0.00 
 127    9:35   0.66   82.8    20    5.1   344     9.3    0.00 
 127    9:40   0.67   82.9    20    6.1   346     9.3    0.00 
 127    9:45   0.68   83.5    19    4.4     1     7.1    0.00 
 127    9:50   0.69   83.9    19    5.4   327    10.5    0.00 
 127    9:55   0.71   83.9    19    6.6   346     9.9    0.00 
 127   10:00   0.72   84.1    19    5.1   348     8.2    0.00 
 127   10:05   0.73   84.5    19    6.6   326    10.5    0.00 
 127   10:10   0.74   84.5    18    6.0   342     9.9    0.00 
 127   10:15   0.75   85.3    18    7.0   338    10.5    0.00 
 127   10:20   0.76   84.9    18    6.0   328     9.9    0.00 
 127   10:25   0.77   85.8    18    5.3   328     8.2    0.00 
 127   10:30   0.78   86.1    17    6.2   321     9.9    0.00 
 127   10:35   0.79   85.8    18    6.0   332    11.0    0.00 
 127   10:40   0.80   86.4    17    5.4   320     8.2    0.00 
 127   10:45   0.81   86.4    17    6.2   349    11.0    0.00 
 127   10:50   0.82   87.0    17    6.3   324    11.6    0.00 
 127   10:55   0.83   86.2    17    6.8   328    11.6    0.00 
 127   11:00   0.84   87.0    17    5.9   347    11.0    0.00 
 127   11:05   0.84   87.9    17    7.0   348    12.7    0.00 
 127   11:10   0.85   88.2    16    6.4   337    10.5    0.00 
 127   11:15   0.86   87.9    16    8.4   348    14.9    0.00 
 127   11:20   0.87   88.1    16    8.7   343    12.7    0.00 
 127   11:25   0.87   88.1    16    5.6   329     9.9    0.00 
 127   11:30   0.88   88.7    16    8.3     7    15.5    0.00 
 127   11:35   0.88   88.8    16    9.1   319    14.4    0.00 
 127   11:40   0.89   88.9    16    6.3   322    11.0    0.00 
 127   11:45   0.89   88.8    16    6.9   322    11.0    0.00 
 127   11:50   0.90   89.5    16    6.6   349    12.7    0.00 
 127   11:55   0.90   90.8    15    7.1   322    12.1    0.00 
 127   12:00   0.91   90.7    15    8.4   329    14.4    0.00 
 127   12:05   0.91   89.7    16    9.5   324    16.0    0.00 
 127   12:10   0.91   89.9    16    8.6   353    12.7    0.00 
 127   12:15   0.91   90.3    15    5.4   346    10.5    0.00 
 127   12:20   0.92   90.2    15    8.3   339    14.4    0.00 
 127   12:25   0.92   90.1    15    7.0   347    11.0    0.00 
 127   12:30   0.92   90.2    15    5.9   328    11.0    0.00 
 127   12:35   0.92   90.2    15    6.6   304    12.7    0.00 
 127   12:40   0.92   90.8    15    7.1   315    12.1    0.00 
 127   12:45   0.92   91.6    15    9.7   307    17.2    0.00 
 127   12:50   0.92   90.4    15    5.6   294     9.3    0.00 
 127   12:55   0.92   90.8    15    5.1    31    11.6    0.00 
 127   13:00   0.92   91.7    14    6.0   297    10.5    0.00 
 127   13:05   0.92   91.4    15    5.0   299    12.1    0.00 
 127   13:10   0.91   91.6    14    5.1   320    10.5    0.00 
 127   13:15   0.91   92.9    14    7.1   350    10.5    0.00 
 127   13:20   0.91   93.0    14    7.2   332    13.8    0.00 
 127   13:25   0.90   93.1    14    7.8    14    12.7    0.00 
 127   13:30   0.90   92.8    14    6.8    14     9.9    0.00 
 127   13:35   0.90   91.6    14    5.0     0    10.5    0.00 
 127   13:40   0.89   92.6    14    8.1     8    13.3    0.00 
 127   13:45   0.89   92.0    14    3.5   316     8.2    0.00 
 127   13:50   0.88   93.1    14    1.7   263     6.5    0.00 
 127   13:55   0.88   92.9    14    7.5   332    13.3    0.00 
 127   14:00   0.87   93.1    14    6.2   301    11.0    0.00 
 127   14:05   0.86   93.8    13    6.0   312    10.5    0.00 
 127   14:10   0.86   93.0    13    5.4   305    11.6    0.00 
 127   14:15   0.85   92.5    14    6.2   300    13.8    0.00 
 127   14:20   0.84   94.4    13    8.2   319    13.8    0.00 
 127   14:25   0.83   94.0    13    5.6   358     8.8    0.00 
 127   14:30   0.82   93.5    13    4.9   348     9.3    0.00 
 127   14:35   0.81   94.1    13    6.7   331    13.3    0.00 
 127   14:40   0.81   94.6    12    6.2   330     9.3    0.00 
 127   14:45   0.80   95.0    12    4.1   312     6.5    0.00 
 127   14:50   0.79   95.0    12    7.2   303    12.7    0.00 
 127   14:55   0.78   94.1    12    5.3   282    10.5    0.00 
 127   15:00   0.77   93.8    12    6.3   307    10.5    0.00 
 127   15:05   0.76   94.6    12    4.6   335     7.7    0.00 
 127   15:10   0.75   95.0    12    5.1   345    12.7    0.00 
 127   15:15   0.74   95.2    11    8.2   333    12.1    0.00 
 127   15:20   0.72   94.9    11    6.8   296    12.7    0.00 
 127   15:25   0.71   94.4    11    2.7   299     8.2    0.00 
 127   15:30   0.70   95.1    11    5.1   264    10.5    0.00 
 127   15:35   0.68   95.5    11    6.1   283     9.9    0.00 
 127   15:40   0.67   94.7    11    5.8   309    11.0    0.00 
 127   15:45   0.66   94.9    11    6.9   309    14.9    0.00 
 127   15:50   0.64   95.2    10    5.7   337    14.9    0.00 
 127   15:55   0.63   94.5    10    3.0    46     9.3    0.00 
 127   16:00   0.62   95.5    10    8.2   336    13.8    0.00 
 127   16:05   0.60   95.5    10    7.9   355    14.9    0.00 
 127   16:10   0.59   95.3    10    4.0    62     9.9    0.00 
 127   16:15   0.57   96.1    10    7.2   340    16.0    0.00 
 127   16:20   0.56   95.6    10    9.5    16    14.4    0.00 
 127   16:25   0.54   95.5    10    8.5    16    14.4    0.00 
 127   16:30   0.52   94.9    10    4.2    88     6.5    0.00 
 127   16:35   0.51   94.9    10    4.7     9    15.5    0.00 
 127   16:40   0.49   95.2    10    9.0   340    19.4    0.00 
 127   16:45   0.48   96.1    10    9.4   342    16.0    0.00 
 127   16:50   0.46   95.2    10    7.3   351    12.7    0.00 
 127   16:55   0.44   95.5    10    1.8   344     5.4    0.00 
 127   17:00   0.43   95.3    10    3.7   359     7.1    0.00 
 127   17:05   0.41   95.7    10    8.2   331    11.6    0.00 
 127   17:10   0.40   94.6    10    2.8     9    11.0    0.00 
 127   17:15   0.38   95.4    10    3.9   304    11.6    0.00 
 127   17:20   0.36   95.7    10    7.2   314    12.1    0.00 
 127   17:25   0.35   95.2    10    5.0   291    10.5    0.00 
 127   17:30   0.33   95.2    10    5.4   329    10.5    0.00 
 127   17:35   0.31   95.3    10    9.4   356    20.0    0.00 
 127   17:40   0.29   94.6    10    8.5    12    13.8    0.00 
 127   17:45   0.28   94.2    10    4.3     6     8.8    0.00 
 127   17:50   0.26   94.8    10    5.8   352    10.5    0.00 
 127   17:55   0.24   95.1    10    5.3   317    13.3    0.00 
 127   18:00   0.23   94.8    10    6.3   317     9.3    0.00 
 127   18:05   0.21   94.4    10    5.5   307     9.3    0.00 
 127   18:10   0.19   94.4    10    3.2   303     7.1    0.00 
 127   18:15   0.18   94.3    10    4.2   318     8.2    0.00 
 127   18:20   0.16   94.0    10    6.5   299     8.8    0.00 
 127   18:25   0.15   93.8    10    4.7   276     8.2    0.00 
 127   18:30   0.13   93.6    10    3.7   263     6.5    0.00 
 127   18:35   0.12   93.5    10    4.1   284     6.0    0.00 
 127   18:40   0.10   93.3    10    4.0   260     5.4    0.00 
 127   18:45   0.09   93.1    10    4.0   277     6.0    0.00 
 127   18:50   0.07   92.9    10    3.6   298     5.4    0.00 
 127   18:55   0.06   92.5    11    3.3   308     5.4    0.00 
 127   19:00   0.05   92.2    11    2.6   301     4.3    0.00 
 127   19:05   0.04   91.5    11    3.0   286     4.3    0.00 
 127   19:10   0.02   90.8    11    1.9   292     3.8    0.00 
 127   19:15   0.01   89.9    11    2.2   267     3.2    0.00 
 127   19:20   0.01   89.1    12    0.5   276     3.2    0.00 
 127   19:25   0.00   88.4    12    0.0     0     0.0    0.00 
 127   19:30   0.00   87.8    12    0.0     0     0.0    0.00 
 127   19:35   0.00   87.3    12    1.5   274     3.8    0.00 
 127   19:40   0.00   86.7    12    1.6   262     2.6    0.00 
 127   19:45   0.00   85.9    13    0.3   260     2.1    0.00 
 127   19:50   0.00   85.1    13    0.0     0     0.0    0.00 
 127   19:55   0.00   84.3    13    0.0     0     0.0    0.00 
 127   20:00   0.00   84.2    14    0.0     0     0.0    0.00 
 127   20:05   0.00   84.3    14    0.0     0     0.0    0.00 
 127   20:10   0.00   83.7    14    0.0     0     0.0    0.00 
 127   20:15   0.00   83.3    14    0.0     0     0.0    0.00 
 127   20:20   0.00   83.0    14    0.0     0     0.0    0.00 
 127   20:25   0.00   82.8    14    0.6   175     2.1    0.00 
 127   20:30   0.00   82.0    14    1.4   166     2.1    0.00 
 127   20:35   0.00   81.3    15    1.5   160     2.6    0.00 
 127   20:40   0.00   81.2    15    1.5   164     2.6    0.00 
 127   20:45   0.00   80.7    15    2.3   145     3.2    0.00 
 127   20:50   0.00   80.3    15    2.6   139     3.2    0.00 
 127   20:55   0.00   80.3    15    2.9   130     3.8    0.00 
 127   21:00   0.00   79.5    15    3.3   123     3.8    0.00 
 127   21:05   0.00   79.7    15    3.2   128     3.8    0.00 
 127   21:10   0.00   80.2    15    3.1   126     3.8    0.00 
 127   21:15   0.00   79.9    15    3.1   126     4.3    0.00 
 127   21:20   0.00   80.2    15    2.1   136     3.2    0.00 
 127   21:25   0.00   79.7    15    2.5   134     3.2    0.00 
 127   21:30   0.00   79.0    15    3.2   129     4.3    0.00 
 127   21:35   0.00   79.2    16    2.9   135     3.8    0.00 
 127   21:40   0.00   79.5    15    3.3   129     4.3    0.00 
 127   21:45   0.00   79.6    16    3.5   134     4.3    0.00 
 127   21:50   0.00   79.4    16    3.0   144     4.3    0.00 
 127   21:55   0.00   80.1    15    4.1   133     4.9    0.00 
 127   22:00   0.00   80.6    15    4.3   132     5.4    0.00 
 127   22:05   0.00   80.8    15    4.5   135     6.0    0.00 
 127   22:10   0.00   80.7    15    4.0   137     5.4    0.00 
 127   22:15   0.00   80.6    16    4.5   138     6.0    0.00 
 127   22:20   0.00   80.7    16    4.9   136     6.0    0.00 
 127   22:25   0.00   80.7    16    6.5   146    12.1    0.00 
 127   22:30   0.00   79.3    25   10.2   154    16.6    0.00 
 127   22:35   0.00   78.0    32   10.1   152    15.5    0.00 
 127   22:40   0.00   77.6    35   10.5   150    14.9    0.00 
 127   22:45   0.00   77.3    36   10.2   149    14.4    0.00 
 127   22:50   0.00   77.0    38   10.4   147    13.8    0.00 
 127   22:55   0.00   76.6    39   10.8   146    14.9    0.00 
 127   23:00   0.00   76.4    40   11.6   148    17.2    0.00 
 127   23:05   0.00   76.0    40   10.6   149    16.0    0.00 
 127   23:10   0.00   75.8    41   11.4   155    17.2    0.00 
 127   23:15   0.00   75.6    41   11.2   155    15.5    0.00 
 127   23:20   0.00   75.4    41   10.2   152    16.6    0.00 
 127   23:25   0.00   75.3    41    9.8   148    13.3    0.00 
 127   23:30   0.00   75.2    40    9.7   147    14.4    0.00 
 127   23:35   0.00   75.1    41    9.4   148    14.4    0.00 
 127   23:40   0.00   74.9    41    8.5   147    13.3    0.00 
 127   23:45   0.00   74.9    40    8.4   146    12.1    0.00 
 127   23:50   0.00   74.9    40    9.1   146    13.3    0.00 
 127   23:55   0.00   74.9    40    9.4   151    13.8    0.00 
 128    0:00   0.00   74.7    41    9.9   152    17.2    0.00 
 128    0:05   0.00   74.4    42   10.0   152    13.8    0.00 
 128    0:10   0.00   74.2    42   10.1   152    17.2    0.00 
 128    0:15   0.00   74.1    42   10.1   152    15.5    0.00 
 128    0:20   0.00   74.0    43   10.5   154    14.9    0.00 
 128    0:25   0.00   73.8    43   10.4   150    15.5    0.00 
 128    0:30   0.00   73.8    43   10.2   156    15.5    0.00 
 128    0:35   0.00   73.7    43    9.3   152    13.3    0.00 
 128    0:40   0.00   73.6    42   10.0   152    14.9    0.00 
 128    0:45   0.00   73.6    43    9.3   152    13.8    0.00 
 128    0:50   0.00   73.4    43    9.3   153    13.3    0.00 
 128    0:55   0.00   73.3    43    9.1   153    13.8    0.00 
 128    1:00   0.00   73.3    43    9.3   153    13.3    0.00 
 128    1:05   0.00   73.2    43    9.0   152    14.4    0.00 
 128    1:10   0.00   73.0    43    9.5   154    13.8    0.00 
 128    1:15   0.00   72.9    42    9.3   156    13.8    0.00 
 128    1:20   0.00   72.7    42    8.2   154    12.7    0.00 
 128    1:25   0.00   72.7    42    8.7   154    12.7    0.00 
 128    1:30   0.00   72.5    42    8.9   156    13.8    0.00 
 128    1:35   0.00   72.2    42    8.8   160    14.4    0.00 
 128    1:40   0.00   72.0    42    9.5   161    12.7    0.00 
 128    1:45   0.00   72.0    42    9.1   158    12.7    0.00 
 128    1:50   0.00   72.0    42    8.8   160    13.8    0.00 
 128    1:55   0.00   72.0    42    7.9   156    12.1    0.00 
 128    2:00   0.00   72.3    42    8.2   154    12.1    0.00 
 128    2:05   0.00   72.3    41    7.7   149    11.6    0.00 
 128    2:10   0.00   72.1    41    6.9   153    10.5    0.00 
 128    2:15   0.00   72.0    41    6.8   155     9.3    0.00 
 128    2:20   0.00   71.8    42    6.2   154     8.2    0.00 
 128    2:25   0.00   71.7    42    6.7   149     9.9    0.00 
 128    2:30   0.00   71.6    42    7.3   152    10.5    0.00 
 128    2:35   0.00   71.7    42    6.9   152    10.5    0.00 
 128    2:40   0.00   71.6    42    7.7   147    11.6    0.00 
 128    2:45   0.00   71.6    42    7.7   147    10.5    0.00 
 128    2:50   0.00   71.4    42    7.4   154    10.5    0.00 
 128    2:55   0.00   71.2    42    7.3   156    10.5    0.00 
 128    3:00   0.00   71.2    42    7.1   152    11.0    0.00 
 128    3:05   0.00   71.1    42    7.2   151     9.9    0.00 
 128    3:10   0.00   71.4    42    8.0   153    11.6    0.00 
 128    3:15   0.00   71.3    42    7.8   153    11.6    0.00 
 128    3:20   0.00   71.4    42    8.3   155    11.0    0.00 
 128    3:25   0.00   71.5    42    8.7   154    12.7    0.00 
 128    3:30   0.00   71.6    41    7.9   154    11.6    0.00 

Return to Forage Plot graphs page.


Western Regional Climate Center,wrcc@dri.edu